createdAt,value
2019-02-27T00:00:49.536Z,0.00
2019-02-27T00:01:49.974Z,0.00
2019-02-27T00:02:49.561Z,0.00
2019-02-27T00:03:49.573Z,0.00
2019-02-27T00:04:49.585Z,0.00
2019-02-27T00:05:49.596Z,0.00
2019-02-27T00:06:49.609Z,0.00
2019-02-27T00:07:51.898Z,0.00
2019-02-27T00:08:49.635Z,0.00
2019-02-27T00:09:49.649Z,0.00
2019-02-27T00:10:49.661Z,0.00
2019-02-27T00:11:49.673Z,0.00
2019-02-27T00:12:51.733Z,0.00
2019-02-27T00:13:49.699Z,0.00
2019-02-27T00:14:49.706Z,0.00
2019-02-27T00:15:49.722Z,0.00
2019-02-27T00:16:49.733Z,0.00
2019-02-27T00:17:51.470Z,0.00
2019-02-27T00:18:49.766Z,0.00
2019-02-27T00:19:49.768Z,0.00
2019-02-27T00:20:49.783Z,0.00
2019-02-27T00:21:49.797Z,0.00
2019-02-27T00:22:50.824Z,0.00
2019-02-27T00:23:49.821Z,0.00
2019-02-27T00:24:49.833Z,0.00
2019-02-27T00:25:49.845Z,0.00
2019-02-27T00:26:49.854Z,0.00
2019-02-27T00:27:49.974Z,0.00
2019-02-27T00:28:49.879Z,0.00
2019-02-27T00:29:49.895Z,0.00
2019-02-27T00:30:49.910Z,0.00
2019-02-27T00:31:49.917Z,0.00
2019-02-27T00:32:51.313Z,0.00
2019-02-27T00:33:49.947Z,0.00
2019-02-27T00:34:49.955Z,0.00
2019-02-27T00:35:49.967Z,0.00
2019-02-27T00:36:49.979Z,0.00
2019-02-27T00:37:52.055Z,0.00
2019-02-27T00:38:50.063Z,0.00
2019-02-27T00:39:50.016Z,0.00
2019-02-27T00:40:50.027Z,0.00
2019-02-27T00:41:50.041Z,0.00
2019-02-27T00:42:54.053Z,0.00
2019-02-27T00:43:50.067Z,0.00
2019-02-27T00:44:50.077Z,0.00
2019-02-27T00:45:50.091Z,0.00
2019-02-27T00:46:50.100Z,0.00
2019-02-27T00:47:52.827Z,0.00
2019-02-27T00:48:50.127Z,0.00
2019-02-27T00:49:50.138Z,0.00
2019-02-27T00:50:50.153Z,0.00
2019-02-27T00:51:50.163Z,0.00
2019-02-27T00:52:51.123Z,0.00
2019-02-27T00:53:50.185Z,0.00
2019-02-27T00:54:50.199Z,0.00
2019-02-27T00:55:50.211Z,0.00
2019-02-27T00:56:50.219Z,0.00
2019-02-27T00:57:51.851Z,0.00
2019-02-27T00:58:50.247Z,0.00
2019-02-27T00:59:50.260Z,0.00
2019-02-27T01:00:50.271Z,0.00
2019-02-27T01:01:50.282Z,0.00
2019-02-27T01:02:52.683Z,0.00
2019-02-27T01:03:50.306Z,0.00
2019-02-27T01:04:50.325Z,0.00
2019-02-27T01:05:50.330Z,0.00
2019-02-27T01:06:50.343Z,0.00
2019-02-27T01:07:53.809Z,0.00
2019-02-27T01:08:50.369Z,0.00
2019-02-27T01:09:50.381Z,0.00
2019-02-27T01:10:50.393Z,0.00
2019-02-27T01:11:51.878Z,0.00
2019-02-27T01:12:50.418Z,0.00
2019-02-27T01:13:50.426Z,0.00
2019-02-27T01:14:50.438Z,0.00
2019-02-27T01:15:50.452Z,0.00
2019-02-27T01:16:50.844Z,0.00
2019-02-27T01:17:50.477Z,0.00
2019-02-27T01:18:51.023Z,0.00
2019-02-27T01:19:50.502Z,0.00
2019-02-27T01:20:50.513Z,0.00
2019-02-27T01:21:50.526Z,0.00
2019-02-27T01:22:50.536Z,0.00
2019-02-27T01:23:50.547Z,0.00
2019-02-27T01:24:50.675Z,0.00
2019-02-27T01:25:50.572Z,0.00
2019-02-27T01:26:50.584Z,0.00
2019-02-27T01:27:50.597Z,0.00
2019-02-27T01:28:50.622Z,0.00
2019-02-27T01:29:51.608Z,0.00
2019-02-27T01:30:50.632Z,0.00
2019-02-27T01:31:50.646Z,0.00
2019-02-27T01:32:50.657Z,0.00
2019-02-27T01:33:50.671Z,0.00
2019-02-27T01:34:50.679Z,0.00
2019-02-27T01:35:52.268Z,0.00
2019-02-27T01:36:50.702Z,0.00
2019-02-27T01:37:50.735Z,0.00
2019-02-27T01:38:50.800Z,0.00
2019-02-27T01:39:50.799Z,0.00
2019-02-27T01:40:51.630Z,0.00
2019-02-27T01:41:50.797Z,0.00
2019-02-27T01:42:50.861Z,0.00
2019-02-27T01:43:50.831Z,0.00
2019-02-27T01:44:50.874Z,0.00
2019-02-27T01:45:51.852Z,0.00
2019-02-27T01:46:50.854Z,0.00
2019-02-27T01:47:50.858Z,0.00
2019-02-27T01:48:50.855Z,0.00
2019-02-27T01:49:50.860Z,0.00
2019-02-27T01:50:54.952Z,0.00
2019-02-27T01:51:50.882Z,0.00
2019-02-27T01:52:50.895Z,0.00
2019-02-27T01:53:50.910Z,0.00
2019-02-27T01:54:50.918Z,0.00
2019-02-27T01:55:50.932Z,0.00
2019-02-27T01:56:50.949Z,0.00
2019-02-27T01:57:50.951Z,0.00
2019-02-27T01:58:50.965Z,0.00
2019-02-27T01:59:51.027Z,0.00
2019-02-27T02:00:50.986Z,0.00
2019-02-27T02:01:51.005Z,0.00
2019-02-27T02:02:51.013Z,0.00
2019-02-27T02:03:51.030Z,0.00
2019-02-27T02:04:53.258Z,0.00
2019-02-27T02:05:51.048Z,0.00
2019-02-27T02:06:51.060Z,0.00
2019-02-27T02:07:51.074Z,0.00
2019-02-27T02:08:51.084Z,0.00
2019-02-27T02:09:52.062Z,0.00
2019-02-27T02:10:51.106Z,0.00
2019-02-27T02:11:51.115Z,0.00
2019-02-27T02:12:51.129Z,0.00
2019-02-27T02:13:51.143Z,0.00
2019-02-27T02:14:54.100Z,0.00
2019-02-27T02:15:51.167Z,0.00
2019-02-27T02:16:51.179Z,0.00
2019-02-27T02:17:51.189Z,0.00
2019-02-27T02:18:51.199Z,0.00
2019-02-27T02:19:53.979Z,0.00
2019-02-27T02:20:51.227Z,0.00
2019-02-27T02:21:51.239Z,0.00
2019-02-27T02:22:51.248Z,0.00
2019-02-27T02:23:51.260Z,0.00
2019-02-27T02:24:51.964Z,0.00
2019-02-27T02:25:51.284Z,0.00
2019-02-27T02:26:51.297Z,0.00
2019-02-27T02:27:51.307Z,0.00
2019-02-27T02:28:51.320Z,0.00
2019-02-27T02:29:53.184Z,0.00
2019-02-27T02:30:51.347Z,0.00
2019-02-27T02:31:51.353Z,0.00
2019-02-27T02:32:52.307Z,0.00
2019-02-27T02:33:51.378Z,0.00
2019-02-27T02:34:51.388Z,0.00
2019-02-27T02:35:51.402Z,0.00
2019-02-27T02:36:51.414Z,0.00
2019-02-27T02:37:51.425Z,0.00
2019-02-27T02:38:51.434Z,0.00
2019-02-27T02:39:54.463Z,0.00
2019-02-27T02:40:51.458Z,0.00
2019-02-27T02:41:51.468Z,0.00
2019-02-27T02:42:51.482Z,0.00
2019-02-27T02:43:51.493Z,0.00
2019-02-27T02:44:57.233Z,0.00
2019-02-27T02:45:51.520Z,0.00
2019-02-27T02:46:51.528Z,0.00
2019-02-27T02:47:55.390Z,0.00
2019-02-27T02:48:51.554Z,0.00
2019-02-27T02:49:51.565Z,0.00
2019-02-27T02:50:54.279Z,0.00
2019-02-27T02:51:51.587Z,0.00
2019-02-27T02:52:51.599Z,0.00
2019-02-27T02:53:51.615Z,0.00
2019-02-27T02:54:51.625Z,0.00
2019-02-27T02:55:51.637Z,0.00
2019-02-27T02:56:51.648Z,0.00
2019-02-27T02:57:51.657Z,0.00
2019-02-27T02:58:51.682Z,0.00
2019-02-27T02:59:51.679Z,0.00
2019-02-27T03:00:51.693Z,0.00
2019-02-27T03:01:51.706Z,0.00
2019-02-27T03:02:51.717Z,0.00
2019-02-27T03:03:51.728Z,0.00
2019-02-27T03:04:51.738Z,0.00
2019-02-27T03:05:55.156Z,0.00
2019-02-27T03:06:51.761Z,0.00
2019-02-27T03:07:51.769Z,0.00
2019-02-27T03:08:54.993Z,0.00
2019-02-27T03:09:51.798Z,0.00
2019-02-27T03:10:51.815Z,0.00
2019-02-27T03:11:54.726Z,0.00
2019-02-27T03:12:51.833Z,0.00
2019-02-27T03:13:51.904Z,0.00
2019-02-27T03:14:54.369Z,0.00
2019-02-27T03:15:51.864Z,0.00
2019-02-27T03:16:51.878Z,0.00
2019-02-27T03:17:54.752Z,0.00
2019-02-27T03:18:51.901Z,0.00
2019-02-27T03:19:51.911Z,0.00
2019-02-27T03:20:52.321Z,0.00
2019-02-27T03:21:51.937Z,0.00
2019-02-27T03:22:51.956Z,0.00
2019-02-27T03:23:52.526Z,0.00
2019-02-27T03:24:51.971Z,0.00
2019-02-27T03:25:51.985Z,0.00
2019-02-27T03:26:53.212Z,0.00
2019-02-27T03:27:52.004Z,0.00
2019-02-27T03:28:52.016Z,0.00
2019-02-27T03:29:53.416Z,0.00
2019-02-27T03:30:52.039Z,0.00
2019-02-27T03:31:57.950Z,0.00
2019-02-27T03:32:52.061Z,0.00
2019-02-27T03:33:52.079Z,0.00
2019-02-27T03:34:52.158Z,0.00
2019-02-27T03:35:52.099Z,0.00
2019-02-27T03:36:52.112Z,0.00
2019-02-27T03:37:52.121Z,0.00
2019-02-27T03:38:52.134Z,0.00
2019-02-27T03:39:52.142Z,0.00
2019-02-27T03:40:52.155Z,0.00
2019-02-27T03:41:58.395Z,0.00
2019-02-27T03:42:52.179Z,0.00
2019-02-27T03:43:52.192Z,0.00
2019-02-27T03:44:55.702Z,0.00
2019-02-27T03:45:52.213Z,0.00
2019-02-27T03:46:52.226Z,0.00
2019-02-27T03:47:52.898Z,0.00
2019-02-27T03:48:52.251Z,0.00
2019-02-27T03:49:52.263Z,0.00
2019-02-27T03:50:52.271Z,0.00
2019-02-27T03:51:52.280Z,0.00
2019-02-27T03:52:52.297Z,0.00
2019-02-27T03:53:52.304Z,0.00
2019-02-27T03:54:56.981Z,0.00
2019-02-27T03:55:52.328Z,0.00
2019-02-27T03:56:52.338Z,0.00
2019-02-27T03:57:55.304Z,0.00
2019-02-27T03:58:52.366Z,0.00
2019-02-27T03:59:52.374Z,0.00
2019-02-27T04:00:53.821Z,0.00
2019-02-27T04:01:52.696Z,0.00
2019-02-27T04:02:52.409Z,0.00
2019-02-27T04:03:55.269Z,0.00
2019-02-27T04:04:52.432Z,0.00
2019-02-27T04:05:52.444Z,0.00
2019-02-27T04:06:52.961Z,0.00
2019-02-27T04:07:52.462Z,0.00
2019-02-27T04:08:52.493Z,0.00
2019-02-27T04:09:55.426Z,0.00
2019-02-27T04:10:52.502Z,0.00
2019-02-27T04:11:52.510Z,0.00
2019-02-27T04:12:52.533Z,0.00
2019-02-27T04:13:52.613Z,0.00
2019-02-27T04:14:52.618Z,0.00
2019-02-27T04:15:53.647Z,0.00
2019-02-27T04:16:52.606Z,0.00
2019-02-27T04:17:53.128Z,0.00
2019-02-27T04:18:52.617Z,0.00
2019-02-27T04:19:52.662Z,0.00
2019-02-27T04:20:52.690Z,0.00
2019-02-27T04:21:52.665Z,0.00
2019-02-27T04:22:52.669Z,0.00
2019-02-27T04:23:52.671Z,0.00
2019-02-27T04:24:56.388Z,0.00
2019-02-27T04:25:52.675Z,0.00
2019-02-27T04:26:52.928Z,0.00
2019-02-27T04:27:55.439Z,0.00
2019-02-27T04:28:52.756Z,0.00
2019-02-27T04:29:52.722Z,0.00
2019-02-27T04:30:52.723Z,0.00
2019-02-27T04:31:52.737Z,0.00
2019-02-27T04:32:52.747Z,0.00
2019-02-27T04:33:52.759Z,0.00
2019-02-27T04:34:52.770Z,0.00
2019-02-27T04:35:52.780Z,0.00
2019-02-27T04:36:53.096Z,0.00
2019-02-27T04:37:54.279Z,0.00
2019-02-27T04:38:52.813Z,0.00
2019-02-27T04:39:52.823Z,0.00
2019-02-27T04:40:52.836Z,0.00
2019-02-27T04:41:53.103Z,0.00
2019-02-27T04:42:52.864Z,0.00
2019-02-27T04:43:52.872Z,0.00
2019-02-27T04:44:52.882Z,0.00
2019-02-27T04:45:52.892Z,0.00
2019-02-27T04:46:54.945Z,0.00
2019-02-27T04:47:52.912Z,0.00
2019-02-27T04:48:52.925Z,0.00
2019-02-27T04:49:52.937Z,0.00
2019-02-27T04:50:52.944Z,0.00
2019-02-27T04:51:52.959Z,0.00
2019-02-27T04:52:52.970Z,0.00
2019-02-27T04:53:52.985Z,0.00
2019-02-27T04:54:52.995Z,0.00
2019-02-27T04:55:53.004Z,0.00
2019-02-27T04:56:55.086Z,0.00
2019-02-27T04:57:53.026Z,0.00
2019-02-27T04:58:53.039Z,0.00
2019-02-27T04:59:53.048Z,0.00
2019-02-27T05:00:53.062Z,0.00
2019-02-27T05:01:53.074Z,0.00
2019-02-27T05:02:53.405Z,0.00
2019-02-27T05:03:53.098Z,0.00
2019-02-27T05:04:53.111Z,0.00
2019-02-27T05:05:53.115Z,0.00
2019-02-27T05:06:53.126Z,0.00
2019-02-27T05:07:54.357Z,0.00
2019-02-27T05:08:53.150Z,0.00
2019-02-27T05:09:53.162Z,0.00
2019-02-27T05:10:53.173Z,0.00
2019-02-27T05:11:53.185Z,0.00
2019-02-27T05:12:53.199Z,0.00
2019-02-27T05:13:54.383Z,0.00
2019-02-27T05:14:53.214Z,0.00
2019-02-27T05:15:53.226Z,0.00
2019-02-27T05:16:53.241Z,0.00
2019-02-27T05:17:55.570Z,0.00
2019-02-27T05:18:53.261Z,0.00
2019-02-27T05:19:53.274Z,0.00
2019-02-27T05:20:53.283Z,0.00
2019-02-27T05:21:53.548Z,0.00
2019-02-27T05:22:53.307Z,0.00
2019-02-27T05:23:53.318Z,0.00
2019-02-27T05:24:53.330Z,0.00
2019-02-27T05:25:53.340Z,4.00
2019-02-27T05:26:53.350Z,4.00
2019-02-27T05:27:53.362Z,4.00
2019-02-27T05:28:53.372Z,0.00
2019-02-27T05:29:53.385Z,4.00
2019-02-27T05:30:53.394Z,8.00
2019-02-27T05:31:53.981Z,4.00
2019-02-27T05:32:53.419Z,4.00
2019-02-27T05:33:53.429Z,8.00
2019-02-27T05:34:53.441Z,12.00
2019-02-27T05:35:57.009Z,12.00
2019-02-27T05:36:53.726Z,12.00
2019-02-27T05:37:53.475Z,16.00
2019-02-27T05:38:53.484Z,20.00
2019-02-27T05:39:53.495Z,24.00
2019-02-27T05:40:53.506Z,28.00
2019-02-27T05:41:53.821Z,36.00
2019-02-27T05:42:53.587Z,44.00
2019-02-27T05:43:53.545Z,52.00
2019-02-27T05:44:55.890Z,60.00
2019-02-27T05:45:53.561Z,68.00
2019-02-27T05:46:53.579Z,80.00
2019-02-27T05:47:53.583Z,92.00
2019-02-27T05:48:53.979Z,108.00
2019-02-27T05:49:53.607Z,116.00
2019-02-27T05:50:53.618Z,136.00
2019-02-27T05:51:53.630Z,152.00
2019-02-27T05:52:53.639Z,172.00
2019-02-27T05:53:56.139Z,192.00
2019-02-27T05:54:53.662Z,212.00
2019-02-27T05:55:53.673Z,236.00
2019-02-27T05:56:53.686Z,260.00
2019-02-27T05:57:53.695Z,284.00
2019-02-27T05:58:55.950Z,308.00
2019-02-27T05:59:53.718Z,340.00
2019-02-27T06:00:53.725Z,368.00
2019-02-27T06:01:53.743Z,400.00
2019-02-27T06:02:53.751Z,432.00
2019-02-27T06:03:53.762Z,468.00
2019-02-27T06:04:56.164Z,504.00
2019-02-27T06:05:53.782Z,540.00
2019-02-27T06:06:53.792Z,580.00
2019-02-27T06:07:53.803Z,616.00
2019-02-27T06:08:53.821Z,656.00
2019-02-27T06:09:53.896Z,696.00
2019-02-27T06:10:55.978Z,736.00
2019-02-27T06:11:53.849Z,776.00
2019-02-27T06:12:53.858Z,820.00
2019-02-27T06:13:53.873Z,868.00
2019-02-27T06:14:54.994Z,912.00
2019-02-27T06:15:53.894Z,952.00
2019-02-27T06:16:53.904Z,992.00
2019-02-27T06:17:53.915Z,1036.00
2019-02-27T06:18:55.999Z,1084.00
2019-02-27T06:19:53.935Z,1132.00
2019-02-27T06:20:53.950Z,1176.00
2019-02-27T06:21:56.057Z,1220.00
2019-02-27T06:22:53.972Z,1260.00
2019-02-27T06:23:53.989Z,1296.00
2019-02-27T06:24:53.992Z,1320.00
2019-02-27T06:25:59.023Z,1344.00
2019-02-27T06:26:54.016Z,1380.00
2019-02-27T06:27:54.030Z,1424.00
2019-02-27T06:28:54.038Z,1472.00
2019-02-27T06:29:56.834Z,1512.00
2019-02-27T06:30:54.055Z,1556.00
2019-02-27T06:31:54.069Z,1632.00
2019-02-27T06:32:54.080Z,1708.00
2019-02-27T06:33:54.092Z,1744.00
2019-02-27T06:34:54.104Z,1780.00
2019-02-27T06:35:54.116Z,1856.00
2019-02-27T06:36:54.127Z,1952.00
2019-02-27T06:37:54.136Z,2036.00
2019-02-27T06:38:54.147Z,2116.00
2019-02-27T06:39:54.233Z,2188.00
2019-02-27T06:40:54.171Z,2252.00
2019-02-27T06:41:54.184Z,2336.00
2019-02-27T06:42:54.520Z,2404.00
2019-02-27T06:43:54.203Z,2472.00
2019-02-27T06:44:54.214Z,2512.00
2019-02-27T06:45:54.312Z,2552.00
2019-02-27T06:46:54.708Z,2592.00
2019-02-27T06:47:54.251Z,2648.00
2019-02-27T06:48:56.365Z,2740.00
2019-02-27T06:49:54.269Z,2840.00
2019-02-27T06:50:54.283Z,2908.00
2019-02-27T06:51:54.294Z,2956.00
2019-02-27T06:52:54.306Z,2992.00
2019-02-27T06:53:54.324Z,3036.00
2019-02-27T06:54:54.345Z,3080.00
2019-02-27T06:55:54.420Z,3124.00
2019-02-27T06:56:54.419Z,3168.00
2019-02-27T06:57:54.401Z,3196.00
2019-02-27T06:58:54.404Z,3224.00
2019-02-27T06:59:54.416Z,3256.00
2019-02-27T07:00:54.475Z,3288.00
2019-02-27T07:01:54.471Z,3320.00
2019-02-27T07:02:55.452Z,3360.00
2019-02-27T07:03:54.503Z,3384.00
2019-02-27T07:04:54.469Z,3396.00
2019-02-27T07:05:54.460Z,3416.00
2019-02-27T07:06:55.492Z,3460.00
2019-02-27T07:07:54.479Z,3488.00
2019-02-27T07:08:54.491Z,3524.00
2019-02-27T07:09:54.500Z,3556.00
2019-02-27T07:10:57.539Z,3600.00
2019-02-27T07:11:54.522Z,3636.00
2019-02-27T07:12:55.305Z,3668.00
2019-02-27T07:13:54.549Z,3700.00
2019-02-27T07:14:54.557Z,3728.00
2019-02-27T07:15:55.652Z,3748.00
2019-02-27T07:16:56.969Z,3776.00
2019-02-27T07:17:54.592Z,3804.00
2019-02-27T07:18:54.603Z,3828.00
2019-02-27T07:19:54.616Z,3840.00
2019-02-27T07:20:55.667Z,3856.00
2019-02-27T07:21:54.893Z,3876.00
2019-02-27T07:22:54.653Z,3904.00
2019-02-27T07:23:57.599Z,3944.00
2019-02-27T07:24:54.676Z,3952.00
2019-02-27T07:25:54.687Z,3940.00
2019-02-27T07:26:54.696Z,3956.00
2019-02-27T07:27:54.709Z,3984.00
2019-02-27T07:28:54.723Z,3996.00
2019-02-27T07:29:54.735Z,4024.00
2019-02-27T07:30:54.744Z,4048.00
2019-02-27T07:31:54.756Z,4076.00
2019-02-27T07:32:54.787Z,4108.00
2019-02-27T07:33:54.782Z,4136.00
2019-02-27T07:34:54.795Z,4152.00
2019-02-27T07:35:54.806Z,4164.00
2019-02-27T07:36:55.118Z,4176.00
2019-02-27T07:37:54.829Z,4200.00
2019-02-27T07:38:57.496Z,4232.00
2019-02-27T07:39:54.852Z,4232.00
2019-02-27T07:40:54.866Z,4248.00
2019-02-27T07:41:54.879Z,4268.00
2019-02-27T07:42:54.890Z,4296.00
2019-02-27T07:43:54.906Z,4316.00
2019-02-27T07:44:54.915Z,4320.00
2019-02-27T07:45:54.934Z,4348.00
2019-02-27T07:46:57.204Z,4344.00
2019-02-27T07:47:54.952Z,4348.00
2019-02-27T07:48:56.686Z,4364.00
2019-02-27T07:49:55.005Z,4352.00
2019-02-27T07:50:54.986Z,4372.00
2019-02-27T07:51:57.925Z,4384.00
2019-02-27T07:52:55.011Z,4372.00
2019-02-27T07:53:55.027Z,4380.00
2019-02-27T07:54:55.041Z,4400.00
2019-02-27T07:55:55.058Z,4396.00
2019-02-27T07:56:55.065Z,4396.00
2019-02-27T07:57:58.351Z,4408.00
2019-02-27T07:58:55.088Z,4404.00
2019-02-27T07:59:55.104Z,4412.00
2019-02-27T08:00:55.119Z,4424.00
2019-02-27T08:01:55.125Z,4428.00
2019-02-27T08:02:55.143Z,4444.00
2019-02-27T08:03:55.152Z,4472.00
2019-02-27T08:04:55.304Z,4500.00
2019-02-27T08:05:55.180Z,4516.00
2019-02-27T08:06:55.192Z,4544.00
2019-02-27T08:07:55.205Z,4584.00
2019-02-27T08:08:57.137Z,4584.00
2019-02-27T08:09:55.233Z,4604.00
2019-02-27T08:10:55.239Z,4612.00
2019-02-27T08:11:55.253Z,4632.00
2019-02-27T08:12:56.546Z,4648.00
2019-02-27T08:13:55.283Z,4668.00
2019-02-27T08:14:55.298Z,4688.00
2019-02-27T08:15:55.308Z,4720.00
2019-02-27T08:16:57.430Z,4744.00
2019-02-27T08:17:58.004Z,4784.00
2019-02-27T08:18:55.347Z,4788.00
2019-02-27T08:19:55.361Z,4812.00
2019-02-27T08:20:55.407Z,4832.00
2019-02-27T08:21:55.385Z,4840.00
2019-02-27T08:22:55.398Z,4844.00
2019-02-27T08:23:55.413Z,4848.00
2019-02-27T08:24:55.428Z,4864.00
2019-02-27T08:25:55.447Z,4884.00
2019-02-27T08:26:55.454Z,4912.00
2019-02-27T08:27:55.471Z,4900.00
2019-02-27T08:28:55.483Z,4908.00
2019-02-27T08:29:55.496Z,4924.00
2019-02-27T08:30:55.505Z,4908.00
2019-02-27T08:31:55.523Z,4932.00
2019-02-27T08:32:55.534Z,4928.00
2019-02-27T08:33:55.549Z,4920.00
2019-02-27T08:34:55.562Z,4924.00
2019-02-27T08:35:55.576Z,4936.00
2019-02-27T08:36:55.587Z,4936.00
2019-02-27T08:38:02.179Z,4940.00
2019-02-27T08:38:55.618Z,4956.00
2019-02-27T08:39:55.631Z,4964.00
2019-02-27T08:40:58.227Z,4964.00
2019-02-27T08:41:55.660Z,4948.00
2019-02-27T08:42:55.672Z,4936.00
2019-02-27T08:43:55.684Z,4916.00
2019-02-27T08:44:55.702Z,4916.00
2019-02-27T08:45:55.717Z,4920.00
2019-02-27T08:46:55.731Z,4920.00
2019-02-27T08:47:55.922Z,4860.00
2019-02-27T08:48:55.759Z,4844.00
2019-02-27T08:49:57.891Z,4824.00
2019-02-27T08:50:55.787Z,4808.00
2019-02-27T08:51:55.802Z,4788.00
2019-02-27T08:52:57.754Z,4772.00
2019-02-27T08:53:59.051Z,4772.00
2019-02-27T08:54:55.846Z,4764.00
2019-02-27T08:55:55.858Z,4752.00
2019-02-27T08:56:55.874Z,4744.00
2019-02-27T08:57:56.970Z,4728.00
2019-02-27T08:58:55.903Z,4716.00
2019-02-27T08:59:55.917Z,4708.00
2019-02-27T09:00:55.932Z,4708.00
2019-02-27T09:01:56.460Z,4688.00
2019-02-27T09:02:56.059Z,4696.00
2019-02-27T09:03:55.974Z,4692.00
2019-02-27T09:04:55.990Z,4680.00
2019-02-27T09:05:56.004Z,4656.00
2019-02-27T09:06:56.017Z,4644.00
2019-02-27T09:07:56.045Z,4636.00
2019-02-27T09:08:56.048Z,4624.00
2019-02-27T09:09:56.066Z,4616.00
2019-02-27T09:10:56.083Z,4612.00
2019-02-27T09:11:56.096Z,4608.00
2019-02-27T09:13:04.851Z,4584.00
2019-02-27T09:13:56.122Z,4576.00
2019-02-27T09:14:56.143Z,4564.00
2019-02-27T09:15:56.236Z,4568.00
2019-02-27T09:16:56.233Z,4572.00
2019-02-27T09:17:56.241Z,4568.00
2019-02-27T09:18:56.236Z,4576.00
2019-02-27T09:19:56.242Z,4576.00
2019-02-27T09:20:56.294Z,4572.00
2019-02-27T09:21:56.297Z,4564.00
2019-02-27T09:22:56.294Z,4552.00
2019-02-27T09:23:56.305Z,4560.00
2019-02-27T09:24:57.190Z,4568.00
2019-02-27T09:25:57.465Z,4548.00
2019-02-27T09:26:56.323Z,4544.00
2019-02-27T09:27:56.337Z,4544.00
2019-02-27T09:28:56.352Z,4532.00
2019-02-27T09:29:56.376Z,4548.00
2019-02-27T09:30:56.382Z,4576.00
2019-02-27T09:31:56.398Z,4572.00
2019-02-27T09:32:56.414Z,4576.00
2019-02-27T09:33:56.432Z,4600.00
2019-02-27T09:34:57.027Z,4556.00
2019-02-27T09:35:56.463Z,4536.00
2019-02-27T09:36:56.480Z,4568.00
2019-02-27T09:37:56.534Z,4564.00
2019-02-27T09:38:57.642Z,4560.00
2019-02-27T09:39:56.528Z,4548.00
2019-02-27T09:40:56.548Z,4592.00
2019-02-27T09:41:56.557Z,4516.00
2019-02-27T09:42:56.572Z,4516.00
2019-02-27T09:43:58.675Z,4512.00
2019-02-27T09:44:56.607Z,4556.00
2019-02-27T09:45:56.620Z,4568.00
2019-02-27T09:46:56.655Z,4560.00
2019-02-27T09:47:59.555Z,4552.00
2019-02-27T09:48:56.671Z,4484.00
2019-02-27T09:49:56.684Z,4520.00
2019-02-27T09:50:56.990Z,4520.00
2019-02-27T09:51:57.005Z,4496.00
2019-02-27T09:52:56.735Z,4512.00
2019-02-27T09:53:56.752Z,4512.00
2019-02-27T09:54:56.765Z,4512.00
2019-02-27T09:55:56.781Z,4556.00
2019-02-27T09:56:56.799Z,4584.00
2019-02-27T09:57:56.818Z,4564.00
2019-02-27T09:58:56.835Z,4520.00
2019-02-27T09:59:56.851Z,4528.00
2019-02-27T10:00:59.095Z,4560.00
2019-02-27T10:01:57.300Z,4588.00
2019-02-27T10:02:58.204Z,4516.00
2019-02-27T10:03:56.916Z,4552.00
2019-02-27T10:05:01.420Z,4540.00
2019-02-27T10:05:56.951Z,4564.00
2019-02-27T10:06:56.966Z,4540.00
2019-02-27T10:07:57.469Z,4568.00
2019-02-27T10:08:59.025Z,4580.00
2019-02-27T10:09:57.019Z,4580.00
2019-02-27T10:10:57.051Z,4616.00
2019-02-27T10:11:57.052Z,4664.00
2019-02-27T10:12:57.070Z,4624.00
2019-02-27T10:13:57.084Z,4652.00
2019-02-27T10:14:57.101Z,4644.00
2019-02-27T10:16:00.604Z,4660.00
2019-02-27T10:16:57.136Z,4672.00
2019-02-27T10:17:57.154Z,4672.00
2019-02-27T10:18:57.174Z,4716.00
2019-02-27T10:20:01.365Z,4688.00
2019-02-27T10:20:57.208Z,4704.00
2019-02-27T10:21:57.221Z,4728.00
2019-02-27T10:22:57.241Z,4732.00
2019-02-27T10:23:57.256Z,4728.00
2019-02-27T10:24:57.274Z,4704.00
2019-02-27T10:25:57.290Z,4732.00
2019-02-27T10:26:57.312Z,4740.00
2019-02-27T10:27:57.327Z,4772.00
2019-02-27T10:28:57.347Z,4692.00
2019-02-27T10:29:57.364Z,4724.00
2019-02-27T10:30:57.379Z,4740.00
2019-02-27T10:31:58.312Z,4760.00
2019-02-27T10:32:57.418Z,4780.00
2019-02-27T10:33:57.429Z,4760.00
2019-02-27T10:34:58.365Z,4744.00
2019-02-27T10:35:57.467Z,4732.00
2019-02-27T10:36:57.506Z,4736.00
2019-02-27T10:37:57.571Z,4708.00
2019-02-27T10:38:59.414Z,4740.00
2019-02-27T10:39:57.539Z,4712.00
2019-02-27T10:40:57.559Z,4704.00
2019-02-27T10:41:57.576Z,4704.00
2019-02-27T10:42:57.597Z,4696.00
2019-02-27T10:43:57.613Z,4688.00
2019-02-27T10:44:57.629Z,4676.00
2019-02-27T10:45:57.647Z,4648.00
2019-02-27T10:47:00.035Z,4620.00
2019-02-27T10:47:57.683Z,4628.00
2019-02-27T10:48:57.700Z,4664.00
2019-02-27T10:50:01.634Z,4640.00
2019-02-27T10:50:57.736Z,4636.00
2019-02-27T10:51:57.755Z,4644.00
2019-02-27T10:52:57.778Z,4632.00
2019-02-27T10:54:02.357Z,4644.00
2019-02-27T10:54:57.806Z,4636.00
2019-02-27T10:55:57.828Z,4648.00
2019-02-27T10:56:57.843Z,4644.00
2019-02-27T10:57:57.862Z,4628.00
2019-02-27T10:58:57.881Z,4672.00
2019-02-27T10:59:57.902Z,4668.00
2019-02-27T11:00:58.034Z,4668.00
2019-02-27T11:01:57.940Z,4720.00
2019-02-27T11:02:57.955Z,4736.00
2019-02-27T11:04:00.548Z,4716.00
2019-02-27T11:04:57.992Z,4688.00
2019-02-27T11:05:58.037Z,4700.00
2019-02-27T11:06:58.096Z,4760.00
2019-02-27T11:07:58.112Z,4704.00
2019-02-27T11:08:58.100Z,4692.00
2019-02-27T11:09:58.155Z,4736.00
2019-02-27T11:10:58.163Z,4756.00
2019-02-27T11:11:58.167Z,4760.00
2019-02-27T11:12:58.175Z,4764.00
2019-02-27T11:13:58.160Z,4700.00
2019-02-27T11:14:58.177Z,4676.00
2019-02-27T11:15:58.192Z,4644.00
2019-02-27T11:17:02.020Z,4672.00
2019-02-27T11:18:01.051Z,4688.00
2019-02-27T11:18:58.248Z,4736.00
2019-02-27T11:19:58.268Z,4764.00
2019-02-27T11:20:59.199Z,4760.00
2019-02-27T11:21:58.490Z,4764.00
2019-02-27T11:22:58.323Z,4792.00
2019-02-27T11:23:58.340Z,4752.00
2019-02-27T11:24:58.364Z,4740.00
2019-02-27T11:25:58.380Z,4688.00
2019-02-27T11:26:58.399Z,4652.00
2019-02-27T11:27:58.416Z,4628.00
2019-02-27T11:28:58.437Z,4612.00
2019-02-27T11:30:01.302Z,4608.00
2019-02-27T11:30:58.474Z,4556.00
2019-02-27T11:31:58.495Z,4572.00
2019-02-27T11:32:58.511Z,4628.00
2019-02-27T11:33:58.531Z,4628.00
2019-02-27T11:34:58.549Z,4656.00
2019-02-27T11:35:58.566Z,4656.00
2019-02-27T11:36:58.587Z,4672.00
2019-02-27T11:37:58.605Z,4732.00
2019-02-27T11:38:59.196Z,4716.00
2019-02-27T11:39:58.644Z,4736.00
2019-02-27T11:40:58.661Z,4744.00
2019-02-27T11:41:58.682Z,4720.00
2019-02-27T11:42:58.699Z,4712.00
2019-02-27T11:43:58.718Z,4760.00
2019-02-27T11:44:58.735Z,4788.00
2019-02-27T11:45:58.755Z,4776.00
2019-02-27T11:46:59.125Z,4760.00
2019-02-27T11:47:58.796Z,4756.00
2019-02-27T11:48:59.951Z,4748.00
2019-02-27T11:49:58.833Z,4736.00
2019-02-27T11:50:58.850Z,4760.00
2019-02-27T11:51:58.875Z,4744.00
2019-02-27T11:53:01.842Z,4716.00
2019-02-27T11:53:58.910Z,4756.00
2019-02-27T11:54:58.925Z,4676.00
2019-02-27T11:55:58.945Z,4696.00
2019-02-27T11:56:58.965Z,4744.00
2019-02-27T11:57:58.985Z,4780.00
2019-02-27T11:58:59.005Z,4732.00
2019-02-27T11:59:59.025Z,4632.00
2019-02-27T12:00:59.042Z,4596.00
2019-02-27T12:01:59.060Z,4620.00
2019-02-27T12:02:59.082Z,4604.00
2019-02-27T12:03:59.103Z,4612.00
2019-02-27T12:04:59.118Z,4600.00
2019-02-27T12:05:59.139Z,4608.00
2019-02-27T12:06:59.154Z,4652.00
2019-02-27T12:07:59.175Z,4644.00
2019-02-27T12:08:59.799Z,4648.00
2019-02-27T12:09:59.219Z,4672.00
2019-02-27T12:10:59.236Z,4620.00
2019-02-27T12:11:59.255Z,4640.00
2019-02-27T12:13:00.937Z,4664.00
2019-02-27T12:13:59.295Z,4652.00
2019-02-27T12:14:59.310Z,4680.00
2019-02-27T12:15:59.330Z,4712.00
2019-02-27T12:16:59.354Z,4712.00
2019-02-27T12:18:00.767Z,4664.00
2019-02-27T12:18:59.389Z,4692.00
2019-02-27T12:19:59.410Z,4712.00
2019-02-27T12:20:59.431Z,4732.00
2019-02-27T12:22:00.219Z,4684.00
2019-02-27T12:22:59.471Z,4648.00
2019-02-27T12:23:59.487Z,4644.00
2019-02-27T12:24:59.506Z,4600.00
2019-02-27T12:25:59.950Z,4620.00
2019-02-27T12:26:59.545Z,4628.00
2019-02-27T12:27:59.563Z,4624.00
2019-02-27T12:28:59.585Z,4652.00
2019-02-27T12:30:00.132Z,4656.00
2019-02-27T12:30:59.619Z,4668.00
2019-02-27T12:31:59.643Z,4636.00
2019-02-27T12:32:59.665Z,4580.00
2019-02-27T12:34:02.466Z,4572.00
2019-02-27T12:34:59.702Z,4592.00
2019-02-27T12:35:59.721Z,4604.00
2019-02-27T12:36:59.740Z,4632.00
2019-02-27T12:37:59.766Z,4604.00